createdAt,value
2023-02-05T00:00:02.870Z,121.64
2023-02-05T00:01:02.817Z,121.73
2023-02-05T00:02:02.842Z,122.44
2023-02-05T00:03:02.863Z,122.08
2023-02-05T00:04:03.712Z,122.80
2023-02-05T00:05:02.822Z,121.55
2023-02-05T00:06:02.769Z,122.00
2023-02-05T00:07:02.745Z,122.17
2023-02-05T00:08:02.777Z,122.17
2023-02-05T00:09:03.649Z,122.17
2023-02-05T00:10:02.684Z,122.89
2023-02-05T00:11:02.682Z,122.71
2023-02-05T00:12:02.651Z,122.53
2023-02-05T00:13:02.696Z,122.71
2023-02-05T00:14:03.570Z,122.44
2023-02-05T00:15:02.638Z,122.53
2023-02-05T00:16:02.627Z,122.62
2023-02-05T00:17:02.591Z,122.53
2023-02-05T00:18:02.582Z,122.80
2023-02-05T00:19:03.582Z,123.34
2023-02-05T00:20:02.554Z,123.07
2023-02-05T00:21:02.591Z,122.71
2023-02-05T00:22:02.554Z,122.80
2023-02-05T00:23:02.557Z,122.89
2023-02-05T00:24:02.522Z,123.25
2023-02-05T00:25:03.527Z,122.98
2023-02-05T00:26:02.497Z,122.71
2023-02-05T00:27:02.559Z,122.35
2023-02-05T00:28:02.556Z,123.43
2023-02-05T00:29:02.459Z,123.43
2023-02-05T00:30:02.451Z,123.25
2023-02-05T00:31:03.483Z,123.07
2023-02-05T00:32:02.459Z,123.34
2023-02-05T00:33:02.402Z,123.80
2023-02-05T00:34:02.388Z,123.25
2023-02-05T00:35:02.379Z,123.43
2023-02-05T00:36:03.319Z,123.98
2023-02-05T00:37:02.398Z,123.71
2023-02-05T00:38:02.349Z,123.34
2023-02-05T00:39:02.365Z,123.16
2023-02-05T00:40:02.347Z,123.25
2023-02-05T00:41:03.267Z,123.80
2023-02-05T00:42:02.338Z,123.98
2023-02-05T00:43:02.311Z,123.71
2023-02-05T00:44:02.368Z,123.25
2023-02-05T00:45:02.256Z,124.35
2023-02-05T00:46:02.316Z,124.17
2023-02-05T00:47:03.189Z,123.62
2023-02-05T00:48:02.224Z,123.98
2023-02-05T00:49:02.239Z,124.17
2023-02-05T00:50:02.189Z,124.26
2023-02-05T00:51:02.218Z,124.54
2023-02-05T00:52:03.096Z,124.63
2023-02-05T00:53:02.183Z,123.80
2023-02-05T00:54:02.178Z,124.17
2023-02-05T00:55:02.130Z,124.17
2023-02-05T00:56:02.146Z,125.19
2023-02-05T00:57:03.072Z,124.35
2023-02-05T00:58:03.041Z,124.44
2023-02-05T00:59:02.074Z,124.63
2023-02-05T01:00:02.086Z,124.44
2023-02-05T01:01:03.128Z,125.28
2023-02-05T01:02:03.021Z,125.09
2023-02-05T01:03:02.039Z,124.54
2023-02-05T01:04:02.944Z,124.91
2023-02-05T01:05:01.997Z,125.37
2023-02-05T01:06:01.978Z,124.72
2023-02-05T01:07:02.015Z,125.47
2023-02-05T01:08:01.982Z,125.37
2023-02-05T01:09:02.009Z,124.72
2023-02-05T01:10:02.891Z,125.37
2023-02-05T01:11:01.993Z,125.28
2023-02-05T01:12:01.932Z,125.47
2023-02-05T01:13:01.929Z,125.75
2023-02-05T01:14:01.952Z,125.37
2023-02-05T01:15:02.816Z,124.91
2023-02-05T01:16:01.915Z,125.56
2023-02-05T01:17:01.875Z,124.81
2023-02-05T01:18:01.855Z,125.09
2023-02-05T01:19:01.826Z,124.91
2023-02-05T01:20:02.774Z,125.75
2023-02-05T01:21:01.821Z,125.28
2023-02-05T01:22:01.817Z,125.09
2023-02-05T01:23:01.791Z,125.19
2023-02-05T01:24:01.816Z,125.47
2023-02-05T01:25:01.781Z,125.56
2023-02-05T01:26:02.691Z,125.85
2023-02-05T01:27:01.765Z,125.56
2023-02-05T01:28:01.838Z,124.91
2023-02-05T01:29:01.738Z,125.75
2023-02-05T01:30:01.710Z,125.37
2023-02-05T01:31:02.772Z,125.56
2023-02-05T01:32:01.695Z,125.85
2023-02-05T01:33:01.660Z,126.03
2023-02-05T01:34:01.679Z,125.28
2023-02-05T01:35:01.721Z,125.47
2023-02-05T01:36:02.557Z,125.66
2023-02-05T01:37:01.613Z,125.66
2023-02-05T01:38:01.625Z,126.03
2023-02-05T01:39:01.595Z,126.80
2023-02-05T01:40:01.626Z,126.03
2023-02-05T01:41:02.528Z,126.80
2023-02-05T01:42:01.540Z,126.51
2023-02-05T01:43:01.556Z,126.51
2023-02-05T01:44:01.528Z,127.28
2023-02-05T01:45:01.543Z,125.47
2023-02-05T01:46:02.525Z,126.80
2023-02-05T01:47:01.601Z,126.80
2023-02-05T01:48:01.490Z,126.51
2023-02-05T01:49:01.476Z,127.28
2023-02-05T01:50:01.465Z,126.80
2023-02-05T01:51:01.481Z,127.47
2023-02-05T01:52:02.420Z,127.47
2023-02-05T01:53:01.417Z,127.86
2023-02-05T01:54:01.393Z,127.76
2023-02-05T01:55:01.397Z,128.45
2023-02-05T01:56:01.368Z,129.14
2023-02-05T01:57:01.369Z,128.95
2023-02-05T01:58:02.294Z,128.85
2023-02-05T01:59:01.351Z,130.25
2023-02-05T02:00:01.360Z,129.95
2023-02-05T02:01:01.328Z,130.45
2023-02-05T02:02:01.329Z,130.45
2023-02-05T02:03:03.132Z,130.35
2023-02-05T02:04:01.267Z,130.35
2023-02-05T02:05:01.310Z,131.58
2023-02-05T02:06:01.262Z,131.99
2023-02-05T02:07:01.274Z,132.94
2023-02-05T02:08:01.303Z,132.41
2023-02-05T02:09:02.204Z,133.04
2023-02-05T02:10:01.202Z,132.62
2023-02-05T02:11:01.185Z,133.68
2023-02-05T02:12:01.202Z,133.47
2023-02-05T02:13:01.173Z,133.79
2023-02-05T02:14:02.094Z,134.32
2023-02-05T02:15:01.171Z,135.41
2023-02-05T02:16:01.249Z,134.54
2023-02-05T02:17:01.104Z,135.85
2023-02-05T02:18:01.165Z,136.85
2023-02-05T02:19:02.022Z,136.29
2023-02-05T02:20:01.123Z,136.85
2023-02-05T02:21:01.069Z,137.07
2023-02-05T02:22:01.091Z,136.51
2023-02-05T02:23:01.078Z,138.09
2023-02-05T02:24:01.024Z,137.86
2023-02-05T02:25:01.950Z,137.97
2023-02-05T02:26:01.013Z,137.86
2023-02-05T02:27:00.998Z,138.66
2023-02-05T02:28:01.062Z,138.43
2023-02-05T02:29:00.983Z,138.54
2023-02-05T02:30:01.932Z,139.12
2023-02-05T02:31:01.175Z,139.24
2023-02-05T02:32:00.931Z,139.24
2023-02-05T02:33:01.859Z,140.17
2023-02-05T02:34:00.924Z,139.35
2023-02-05T02:35:01.878Z,139.24
2023-02-05T02:36:00.889Z,140.17
2023-02-05T02:37:00.864Z,140.40
2023-02-05T02:38:00.853Z,139.93
2023-02-05T02:39:00.860Z,140.05
2023-02-05T02:40:00.825Z,140.76
2023-02-05T02:41:01.775Z,141.11
2023-02-05T02:42:01.788Z,140.64
2023-02-05T02:43:00.804Z,140.87
2023-02-05T02:44:00.780Z,140.64
2023-02-05T02:45:00.759Z,141.11
2023-02-05T02:46:01.708Z,141.35
2023-02-05T02:47:00.738Z,141.35
2023-02-05T02:48:00.751Z,141.47
2023-02-05T02:49:00.729Z,142.19
2023-02-05T02:50:00.702Z,141.47
2023-02-05T02:51:00.752Z,142.07
2023-02-05T02:52:01.611Z,141.35
2023-02-05T02:53:00.669Z,140.87
2023-02-05T02:54:00.677Z,142.43
2023-02-05T02:55:00.653Z,141.95
2023-02-05T02:56:01.603Z,141.35
2023-02-05T02:57:01.571Z,141.71
2023-02-05T02:58:00.656Z,141.59
2023-02-05T02:59:00.597Z,141.47
2023-02-05T03:00:01.569Z,142.19
2023-02-05T03:01:00.656Z,142.07
2023-02-05T03:02:01.493Z,142.80
2023-02-05T03:03:00.564Z,142.07
2023-02-05T03:04:00.620Z,142.31
2023-02-05T03:05:01.542Z,143.16
2023-02-05T03:06:00.581Z,142.43
2023-02-05T03:07:00.734Z,141.23
2023-02-05T03:08:01.447Z,141.83
2023-02-05T03:09:00.490Z,141.83
2023-02-05T03:10:00.529Z,142.07
2023-02-05T03:11:00.483Z,142.43
2023-02-05T03:12:00.440Z,140.87
2023-02-05T03:13:01.368Z,142.67
2023-02-05T03:14:01.434Z,141.59
2023-02-05T03:15:00.399Z,140.64
2023-02-05T03:16:00.436Z,142.55
2023-02-05T03:17:00.396Z,141.71
2023-02-05T03:18:01.326Z,142.55
2023-02-05T03:19:00.352Z,141.83
2023-02-05T03:20:00.343Z,141.59
2023-02-05T03:21:00.367Z,141.83
2023-02-05T03:22:00.327Z,142.55
2023-02-05T03:23:00.971Z,142.31
2023-02-05T03:24:01.225Z,141.83
2023-02-05T03:25:01.267Z,142.19
2023-02-05T03:26:01.232Z,142.31
2023-02-05T03:27:01.217Z,142.55
2023-02-05T03:28:01.291Z,142.31
2023-02-05T03:29:01.174Z,142.19
2023-02-05T03:30:01.198Z,142.43
2023-02-05T03:31:00.279Z,142.07
2023-02-05T03:32:01.172Z,142.67
2023-02-05T03:33:00.855Z,141.83
2023-02-05T03:34:01.126Z,142.19
2023-02-05T03:35:01.120Z,142.19
2023-02-05T03:36:01.120Z,142.43
2023-02-05T03:37:00.156Z,142.19
2023-02-05T03:38:01.077Z,141.59
2023-02-05T03:39:01.089Z,142.67
2023-02-05T03:40:01.041Z,141.95
2023-02-05T03:41:01.023Z,143.04
2023-02-05T03:42:00.093Z,142.55
2023-02-05T03:43:01.027Z,143.78
2023-02-05T03:44:01.030Z,142.31
2023-02-05T03:45:01.922Z,143.04
2023-02-05T03:46:01.030Z,142.19
2023-02-05T03:47:00.016Z,142.80
2023-02-05T03:48:00.115Z,143.41
2023-02-05T03:49:00.943Z,143.04
2023-02-05T03:50:01.876Z,142.80
2023-02-05T03:51:00.924Z,143.78
2023-02-05T03:51:59.975Z,143.53
2023-02-05T03:52:59.940Z,143.90
2023-02-05T03:54:00.871Z,145.15
2023-02-05T03:55:01.869Z,143.04
2023-02-05T03:56:00.848Z,144.27
2023-02-05T03:56:59.912Z,144.40
2023-02-05T03:57:59.900Z,144.77
2023-02-05T03:59:00.845Z,143.28
2023-02-05T03:59:59.879Z,144.52
2023-02-05T04:01:01.827Z,143.53
2023-02-05T04:01:59.860Z,144.90
2023-02-05T04:03:00.877Z,144.90
2023-02-05T04:04:00.760Z,144.65
2023-02-05T04:05:00.734Z,145.40
2023-02-05T04:06:00.747Z,144.90
2023-02-05T04:07:01.651Z,144.65
2023-02-05T04:07:59.742Z,145.27
2023-02-05T04:09:00.695Z,145.27
2023-02-05T04:10:00.682Z,145.27
2023-02-05T04:11:00.672Z,144.90
2023-02-05T04:12:00.683Z,145.02
2023-02-05T04:13:01.578Z,144.90
2023-02-05T04:14:00.639Z,146.03
2023-02-05T04:15:00.612Z,144.65
2023-02-05T04:16:00.291Z,146.03
2023-02-05T04:17:00.577Z,145.27
2023-02-05T04:17:59.622Z,145.27
2023-02-05T04:19:01.523Z,145.90
2023-02-05T04:20:00.551Z,146.67
2023-02-05T04:21:00.562Z,145.78
2023-02-05T04:22:00.546Z,146.42
2023-02-05T04:23:00.415Z,146.03
2023-02-05T04:24:00.621Z,146.80
2023-02-05T04:25:01.433Z,146.80
2023-02-05T04:26:00.473Z,146.03
2023-02-05T04:27:00.491Z,145.78
2023-02-05T04:27:59.598Z,146.03
2023-02-05T04:28:59.497Z,146.67
2023-02-05T04:30:01.425Z,146.29
2023-02-05T04:31:00.468Z,145.52
2023-02-05T04:32:00.409Z,146.29
2023-02-05T04:33:00.404Z,145.78
2023-02-05T04:33:59.440Z,145.52
2023-02-05T04:35:01.331Z,146.03
2023-02-05T04:36:00.402Z,145.78
2023-02-05T04:37:00.361Z,145.40
2023-02-05T04:38:00.351Z,146.29
2023-02-05T04:39:00.364Z,145.65
2023-02-05T04:40:00.308Z,145.65
2023-02-05T04:41:01.249Z,145.65
2023-02-05T04:42:00.279Z,145.65
2023-02-05T04:43:00.289Z,145.90
2023-02-05T04:43:59.330Z,145.27
2023-02-05T04:45:00.248Z,145.90
2023-02-05T04:46:00.275Z,145.02
2023-02-05T04:47:01.244Z,145.52
2023-02-05T04:48:00.222Z,146.42
2023-02-05T04:49:00.199Z,145.52
2023-02-05T04:50:00.198Z,145.90
2023-02-05T04:51:00.211Z,145.78
2023-02-05T04:52:01.138Z,145.27
2023-02-05T04:53:00.146Z,145.40
2023-02-05T04:53:59.207Z,145.65
2023-02-05T04:55:00.147Z,145.65
2023-02-05T04:56:00.122Z,145.27
2023-02-05T04:57:01.075Z,145.40
2023-02-05T04:58:00.119Z,145.40
2023-02-05T04:58:59.166Z,145.27
2023-02-05T04:59:59.122Z,146.03
2023-02-05T05:01:00.106Z,145.27
2023-02-05T05:02:00.055Z,145.27
2023-02-05T05:03:00.971Z,145.40
2023-02-05T05:04:00.016Z,144.90
2023-02-05T05:05:00.027Z,144.27
2023-02-05T05:05:59.993Z,144.90
2023-02-05T05:07:00.103Z,144.02
2023-02-05T05:07:59.970Z,144.52
2023-02-05T05:09:00.945Z,144.65
2023-02-05T05:09:59.934Z,144.40
2023-02-05T05:10:59.936Z,144.52
2023-02-05T05:11:59.915Z,143.65
2023-02-05T05:12:59.944Z,144.27
2023-02-05T05:13:59.895Z,143.53
2023-02-05T05:14:59.917Z,143.78
2023-02-05T05:15:59.873Z,143.65
2023-02-05T05:16:59.862Z,143.04
2023-02-05T05:17:58.886Z,142.80
2023-02-05T05:18:59.834Z,141.95
2023-02-05T05:20:00.776Z,142.43
2023-02-05T05:20:59.814Z,142.07
2023-02-05T05:21:59.807Z,141.47
2023-02-05T05:22:59.791Z,142.80
2023-02-05T05:23:59.797Z,142.31
2023-02-05T05:25:00.720Z,141.59
2023-02-05T05:25:59.757Z,141.59
2023-02-05T05:26:59.735Z,141.59
2023-02-05T05:27:59.765Z,141.47
2023-02-05T05:28:58.794Z,141.47
2023-02-05T05:30:00.626Z,141.35
2023-02-05T05:30:59.723Z,141.83
2023-02-05T05:31:59.689Z,141.83
2023-02-05T05:32:59.671Z,142.19
2023-02-05T05:33:58.694Z,142.07
2023-02-05T05:35:00.577Z,141.71
2023-02-05T05:35:59.662Z,142.55
2023-02-05T05:36:59.616Z,142.07
2023-02-05T05:37:59.601Z,142.92
2023-02-05T05:38:59.612Z,142.92
2023-02-05T05:39:59.580Z,143.16
2023-02-05T05:41:00.519Z,143.53
2023-02-05T05:41:59.552Z,143.04
2023-02-05T05:42:59.554Z,143.16
2023-02-05T05:43:59.544Z,143.65
2023-02-05T05:44:59.516Z,143.16
2023-02-05T05:45:59.522Z,143.04
2023-02-05T05:47:00.445Z,143.28
2023-02-05T05:47:59.481Z,143.04
2023-02-05T05:48:59.450Z,143.78
2023-02-05T05:49:59.457Z,143.65
2023-02-05T05:50:58.506Z,143.53
2023-02-05T05:51:59.408Z,143.53
2023-02-05T05:52:59.410Z,144.40
2023-02-05T05:53:59.415Z,144.15
2023-02-05T05:54:59.429Z,144.77
2023-02-05T05:55:59.265Z,144.77
2023-02-05T05:56:59.362Z,145.40
2023-02-05T05:58:00.273Z,144.27
2023-02-05T05:58:59.323Z,145.27
2023-02-05T05:59:58.439Z,145.40
2023-02-05T06:00:59.313Z,145.90
2023-02-05T06:01:59.283Z,145.78
2023-02-05T06:03:00.222Z,145.90
2023-02-05T06:03:59.261Z,145.90
2023-02-05T06:04:59.260Z,145.78
2023-02-05T06:05:59.248Z,145.65
2023-02-05T06:06:58.309Z,145.52
2023-02-05T06:07:59.276Z,144.40
2023-02-05T06:09:00.147Z,144.90
2023-02-05T06:09:59.225Z,144.65
2023-02-05T06:10:59.190Z,144.52
2023-02-05T06:11:59.168Z,144.52
2023-02-05T06:12:59.161Z,143.53
2023-02-05T06:13:59.138Z,144.02
2023-02-05T06:15:00.114Z,144.40
2023-02-05T06:15:59.174Z,143.41
2023-02-05T06:16:59.134Z,144.02
2023-02-05T06:17:59.138Z,143.16
2023-02-05T06:18:59.109Z,142.31
2023-02-05T06:19:59.115Z,142.80
2023-02-05T06:20:59.986Z,142.07
2023-02-05T06:21:59.067Z,141.83
2023-02-05T06:22:59.033Z,141.59
2023-02-05T06:23:59.004Z,141.59
2023-02-05T06:24:59.045Z,142.07
2023-02-05T06:25:59.926Z,140.87
2023-02-05T06:26:58.094Z,142.07
2023-02-05T06:27:59.006Z,140.99
2023-02-05T06:28:58.985Z,140.99
2023-02-05T06:29:58.943Z,140.64
2023-02-05T06:30:59.968Z,140.52
2023-02-05T06:31:59.007Z,140.64
2023-02-05T06:32:58.927Z,141.35
2023-02-05T06:33:57.935Z,140.99
2023-02-05T06:34:58.916Z,141.23
2023-02-05T06:35:58.907Z,140.28
2023-02-05T06:36:59.810Z,140.87
2023-02-05T06:37:57.920Z,140.05
2023-02-05T06:38:58.836Z,140.28
2023-02-05T06:39:58.834Z,141.35
2023-02-05T06:40:57.875Z,140.28
2023-02-05T06:41:59.713Z,139.93
2023-02-05T06:42:58.791Z,142.55
2023-02-05T06:43:58.775Z,140.87
2023-02-05T06:44:58.775Z,141.35
2023-02-05T06:45:58.752Z,140.99
2023-02-05T06:46:59.687Z,141.23
2023-02-05T06:47:58.726Z,141.23
2023-02-05T06:48:58.713Z,141.35
2023-02-05T06:49:58.701Z,141.11
2023-02-05T06:50:58.715Z,141.35
2023-02-05T06:51:59.644Z,141.83
2023-02-05T06:52:57.743Z,140.17
2023-02-05T06:53:57.744Z,141.35
2023-02-05T06:54:58.673Z,142.07
2023-02-05T06:55:57.702Z,140.87
2023-02-05T06:56:59.536Z,140.64
2023-02-05T06:57:58.616Z,141.95
2023-02-05T06:58:58.595Z,140.28
2023-02-05T06:59:58.582Z,141.35
2023-02-05T07:00:57.611Z,141.47
2023-02-05T07:01:57.704Z,140.17
2023-02-05T07:02:58.685Z,140.76
2023-02-05T07:03:57.571Z,139.70
2023-02-05T07:04:57.577Z,141.11
2023-02-05T07:05:57.566Z,140.87
2023-02-05T07:06:57.530Z,141.23
2023-02-05T07:07:58.500Z,142.19
2023-02-05T07:08:57.608Z,141.83
2023-02-05T07:09:57.522Z,141.59
2023-02-05T07:10:57.523Z,140.99
2023-02-05T07:11:57.488Z,140.40
2023-02-05T07:12:58.441Z,140.87
2023-02-05T07:13:57.478Z,140.99
2023-02-05T07:14:58.419Z,140.76
2023-02-05T07:15:58.348Z,141.47
2023-02-05T07:16:58.386Z,141.95
2023-02-05T07:17:59.306Z,140.87
2023-02-05T07:18:57.403Z,140.64
2023-02-05T07:19:57.483Z,141.35
2023-02-05T07:20:58.311Z,141.23
2023-02-05T07:21:58.308Z,140.28
2023-02-05T07:22:59.246Z,139.47
2023-02-05T07:23:57.357Z,139.70
2023-02-05T07:24:58.282Z,139.12
2023-02-05T07:25:58.283Z,139.00
2023-02-05T07:26:58.270Z,138.77
2023-02-05T07:27:58.326Z,137.86
2023-02-05T07:28:59.179Z,137.63
2023-02-05T07:29:57.293Z,137.63
2023-02-05T07:31:00.202Z,137.75
2023-02-05T07:31:58.211Z,136.62
2023-02-05T07:32:57.219Z,137.52
2023-02-05T07:33:58.242Z,136.07
2023-02-05T07:34:58.199Z,137.18
2023-02-05T07:35:58.149Z,137.41
2023-02-05T07:36:58.152Z,137.29
2023-02-05T07:37:58.159Z,137.63
2023-02-05T07:38:59.071Z,137.18
2023-02-05T07:39:58.101Z,137.29
2023-02-05T07:40:58.148Z,136.73
2023-02-05T07:41:58.093Z,136.51
2023-02-05T07:42:58.058Z,135.41
2023-02-05T07:43:59.006Z,136.07
2023-02-05T07:44:57.110Z,135.41
2023-02-05T07:45:57.064Z,134.32
2023-02-05T07:46:58.013Z,135.19
2023-02-05T07:47:58.004Z,134.97
2023-02-05T07:48:57.986Z,135.08
2023-02-05T07:49:58.927Z,133.89
2023-02-05T07:50:57.024Z,134.32
2023-02-05T07:51:57.975Z,134.97
2023-02-05T07:52:57.956Z,134.21
2023-02-05T07:53:57.922Z,133.68
2023-02-05T07:54:58.860Z,133.15
2023-02-05T07:55:56.940Z,133.04
2023-02-05T07:56:57.877Z,133.25
2023-02-05T07:57:57.882Z,132.73
2023-02-05T07:58:57.844Z,131.89
2023-02-05T07:59:56.877Z,131.99
2023-02-05T08:00:57.839Z,132.41
2023-02-05T08:01:57.807Z,131.79
2023-02-05T08:02:56.878Z,131.58
2023-02-05T08:03:57.864Z,131.37
2023-02-05T08:04:57.793Z,131.37
2023-02-05T08:05:57.757Z,131.58
2023-02-05T08:06:57.778Z,130.65
2023-02-05T08:07:57.753Z,130.35
2023-02-05T08:08:57.717Z,131.17
2023-02-05T08:09:56.786Z,129.84
2023-02-05T08:10:56.738Z,129.95
2023-02-05T08:11:57.685Z,130.65
2023-02-05T08:12:57.675Z,130.15
2023-02-05T08:13:57.684Z,129.14
2023-02-05T08:14:57.748Z,130.05
2023-02-05T08:15:56.705Z,128.95
2023-02-05T08:16:58.578Z,129.34
2023-02-05T08:17:56.698Z,129.14
2023-02-05T08:18:57.607Z,128.95
2023-02-05T08:19:56.648Z,128.55
2023-02-05T08:20:57.588Z,127.57
2023-02-05T08:21:56.679Z,128.45
2023-02-05T08:22:58.487Z,127.38
2023-02-05T08:23:57.577Z,127.76
2023-02-05T08:24:57.535Z,127.38
2023-02-05T08:25:57.558Z,127.38
2023-02-05T08:26:56.538Z,126.42
2023-02-05T08:27:57.519Z,127.47
2023-02-05T08:28:58.448Z,126.80
2023-02-05T08:29:57.497Z,126.42
2023-02-05T08:30:57.505Z,126.61
2023-02-05T08:31:57.533Z,125.85
2023-02-05T08:32:57.469Z,126.61
2023-02-05T08:33:57.393Z,125.09
2023-02-05T08:34:57.423Z,126.22
2023-02-05T08:35:57.381Z,125.09
2023-02-05T08:36:57.556Z,124.91
2023-02-05T08:37:56.426Z,125.47
2023-02-05T08:38:57.365Z,124.54
2023-02-05T08:39:58.332Z,125.00
2023-02-05T08:40:57.363Z,124.63
2023-02-05T08:41:57.308Z,124.17
2023-02-05T08:42:56.364Z,123.98
2023-02-05T08:43:57.329Z,123.98
2023-02-05T08:44:57.272Z,124.17
2023-02-05T08:45:57.311Z,123.89
2023-02-05T08:46:57.313Z,124.07
2023-02-05T08:47:56.290Z,123.98
2023-02-05T08:48:56.277Z,123.98
2023-02-05T08:49:56.259Z,123.89
2023-02-05T08:50:57.234Z,123.89
2023-02-05T08:51:58.132Z,123.16
2023-02-05T08:52:56.261Z,123.98
2023-02-05T08:53:56.233Z,124.07
2023-02-05T08:54:57.057Z,123.62
2023-02-05T08:55:57.166Z,123.62
2023-02-05T08:56:58.073Z,123.80
2023-02-05T08:57:56.181Z,123.16
2023-02-05T08:58:56.167Z,123.62
2023-02-05T08:59:57.089Z,122.80
2023-02-05T09:00:57.143Z,123.07
2023-02-05T09:01:57.101Z,122.53
2023-02-05T09:02:57.998Z,122.89
2023-02-05T09:03:56.086Z,122.26
2023-02-05T09:05:07.634Z,122.00
2023-02-05T09:05:58.518Z,123.98
2023-02-05T09:06:56.046Z,121.64
2023-02-05T09:07:57.019Z,123.16
2023-02-05T09:08:56.957Z,122.89
2023-02-05T09:09:56.002Z,121.03
2023-02-05T09:10:56.967Z,121.82
2023-02-05T09:11:56.940Z,120.76
2023-02-05T09:12:56.933Z,121.29
2023-02-05T09:13:57.908Z,120.76
2023-02-05T09:14:55.964Z,121.20
2023-02-05T09:15:56.602Z,122.71
2023-02-05T09:16:56.033Z,121.64
2023-02-05T09:17:56.878Z,119.99
2023-02-05T09:18:55.894Z,120.07
2023-02-05T09:19:56.831Z,119.81
2023-02-05T09:20:57.186Z,121.55
2023-02-05T09:21:56.780Z,121.11
2023-02-05T09:22:56.723Z,120.68
2023-02-05T09:23:56.677Z,119.64
2023-02-05T09:24:57.754Z,121.03
2023-02-05T09:25:56.780Z,118.21
2023-02-05T09:26:55.811Z,119.81
2023-02-05T09:27:56.748Z,120.59
2023-02-05T09:28:56.754Z,119.39
2023-02-05T09:29:56.738Z,119.30
2023-02-05T09:30:57.768Z,118.79
2023-02-05T09:31:56.698Z,117.87
2023-02-05T09:32:56.730Z,118.46
2023-02-05T09:33:55.765Z,119.64
2023-02-05T09:34:55.712Z,118.63
2023-02-05T09:35:56.631Z,119.22
2023-02-05T09:36:57.598Z,118.71
2023-02-05T09:37:56.607Z,118.04
2023-02-05T09:39:12.025Z,118.71
2023-02-05T09:40:20.511Z,117.38
2023-02-05T09:40:58.112Z,119.05
2023-02-05T09:41:56.571Z,118.79
2023-02-05T09:42:55.671Z,118.37
2023-02-05T09:43:56.488Z,118.04
2023-02-05T09:44:56.565Z,117.05
2023-02-05T09:45:56.578Z,117.38
2023-02-05T09:47:02.848Z,117.05
2023-02-05T09:47:56.513Z,116.97
2023-02-05T09:48:55.559Z,117.87
2023-02-05T09:49:56.491Z,116.64
2023-02-05T09:50:57.764Z,116.56
2023-02-05T09:51:56.469Z,116.32
2023-02-05T09:52:57.400Z,115.92
2023-02-05T09:53:56.447Z,115.84
2023-02-05T09:54:56.295Z,115.76
2023-02-05T09:55:55.448Z,115.60
2023-02-05T09:56:56.307Z,114.96
2023-02-05T09:57:56.352Z,115.20
2023-02-05T09:58:56.424Z,114.26
2023-02-05T09:59:56.385Z,115.04
2023-02-05T10:00:55.398Z,114.10
2023-02-05T10:01:55.381Z,114.73
2023-02-05T10:02:56.310Z,114.49
2023-02-05T10:03:56.322Z,113.56
2023-02-05T10:04:55.344Z,113.25
2023-02-05T10:05:56.291Z,112.49
2023-02-05T10:06:55.310Z,113.10
2023-02-05T10:07:55.278Z,111.96
2023-02-05T10:08:56.210Z,112.57
2023-02-05T10:09:55.269Z,111.15
2023-02-05T10:10:56.213Z,111.67
2023-02-05T10:11:55.284Z,111.37
2023-02-05T10:12:56.190Z,110.71
2023-02-05T10:13:55.217Z,110.12
2023-02-05T10:14:56.151Z,109.69
2023-02-05T10:15:55.216Z,110.20
2023-02-05T10:16:55.175Z,109.84
2023-02-05T10:17:55.153Z,109.12
2023-02-05T10:18:55.171Z,108.55
2023-02-05T10:19:55.150Z,108.69
2023-02-05T10:20:56.087Z,108.84
2023-02-05T10:21:55.132Z,108.77
2023-02-05T10:22:55.105Z,108.69
2023-02-05T10:23:55.085Z,108.41
2023-02-05T10:24:56.018Z,107.23
2023-02-05T10:25:55.065Z,107.99
2023-02-05T10:26:55.965Z,107.72
2023-02-05T10:27:55.095Z,107.99
2023-02-05T10:28:55.029Z,107.79
2023-02-05T10:29:55.010Z,107.03
2023-02-05T10:30:55.077Z,106.89
2023-02-05T10:31:56.010Z,107.23
2023-02-05T10:32:54.990Z,106.21
2023-02-05T10:33:54.972Z,106.28
2023-02-05T10:34:54.968Z,106.35
2023-02-05T10:35:54.951Z,106.08
2023-02-05T10:36:54.934Z,105.88
2023-02-05T10:37:57.671Z,105.81
2023-02-05T10:38:54.932Z,105.54
2023-02-05T10:39:54.954Z,104.69
2023-02-05T10:40:54.902Z,104.95
2023-02-05T10:41:54.859Z,104.49
2023-02-05T10:42:55.799Z,104.30
2023-02-05T10:43:54.843Z,103.91
2023-02-05T10:44:54.813Z,104.04
2023-02-05T10:45:54.824Z,102.89
2023-02-05T10:46:54.815Z,103.33
2023-02-05T10:47:55.718Z,103.08
2023-02-05T10:48:54.808Z,102.70
2023-02-05T10:49:56.168Z,102.26
2023-02-05T10:50:54.775Z,101.33
2023-02-05T10:51:54.778Z,101.64
2023-02-05T10:52:54.723Z,101.09
2023-02-05T10:53:55.650Z,101.39
2023-02-05T10:54:54.718Z,101.51
2023-02-05T10:55:55.564Z,101.64
2023-02-05T10:56:54.679Z,101.09
2023-02-05T10:57:54.662Z,101.15
2023-02-05T10:58:54.663Z,101.33
2023-02-05T10:59:55.586Z,100.66
2023-02-05T11:00:55.578Z,101.03
2023-02-05T11:01:54.659Z,100.54
2023-02-05T11:02:54.628Z,100.84
2023-02-05T11:03:54.603Z,100.78
2023-02-05T11:04:54.577Z,100.72
2023-02-05T11:05:55.495Z,101.21
2023-02-05T11:06:54.540Z,100.60
2023-02-05T11:07:54.570Z,101.15
2023-02-05T11:08:54.530Z,100.06
2023-02-05T11:09:54.520Z,100.00
2023-02-05T11:10:54.502Z,100.48
2023-02-05T11:11:55.432Z,99.76
2023-02-05T11:12:54.472Z,99.41
2023-02-05T11:13:54.467Z,100.12
2023-02-05T11:14:54.454Z,99.17
2023-02-05T11:15:54.473Z,99.00
2023-02-05T11:16:55.366Z,99.23
2023-02-05T11:17:54.420Z,99.05
2023-02-05T11:18:54.404Z,98.76
2023-02-05T11:19:55.394Z,98.76
2023-02-05T11:20:54.365Z,98.47
2023-02-05T11:21:54.349Z,98.24
2023-02-05T11:22:55.303Z,98.47
2023-02-05T11:23:54.335Z,98.18
2023-02-05T11:24:54.335Z,98.18
2023-02-05T11:25:54.322Z,97.44
2023-02-05T11:26:54.325Z,97.89
2023-02-05T11:27:54.352Z,97.72
2023-02-05T11:28:55.202Z,97.67
2023-02-05T11:29:54.263Z,97.38
2023-02-05T11:30:54.586Z,97.27
2023-02-05T11:31:54.299Z,97.10
2023-02-05T11:32:54.302Z,97.16
2023-02-05T11:33:55.178Z,96.88
2023-02-05T11:34:54.198Z,96.99
2023-02-05T11:35:54.205Z,97.04
2023-02-05T11:36:54.168Z,96.99
2023-02-05T11:37:54.169Z,97.10
2023-02-05T11:38:54.140Z,97.10
2023-02-05T11:39:55.080Z,97.10
2023-02-05T11:40:54.152Z,97.04
2023-02-05T11:41:54.110Z,97.27
2023-02-05T11:42:54.101Z,97.33
2023-02-05T11:43:54.108Z,97.33
2023-02-05T11:44:55.004Z,97.21
2023-02-05T11:45:54.068Z,96.93
2023-02-05T11:46:54.116Z,97.21
2023-02-05T11:47:54.040Z,96.99
2023-02-05T11:48:54.657Z,97.44
2023-02-05T11:49:54.006Z,97.38
2023-02-05T11:50:54.922Z,97.21
2023-02-05T11:51:54.015Z,96.88
2023-02-05T11:52:53.959Z,96.76
2023-02-05T11:53:54.081Z,96.60
2023-02-05T11:54:53.950Z,96.65
2023-02-05T11:55:54.882Z,96.21
2023-02-05T11:56:53.941Z,95.66
2023-02-05T11:57:53.916Z,95.66
2023-02-05T11:58:53.907Z,95.99
2023-02-05T11:59:53.881Z,95.44
2023-02-05T12:00:54.800Z,95.22
2023-02-05T12:01:54.898Z,94.95
2023-02-05T12:02:53.993Z,94.90
2023-02-05T12:03:53.869Z,94.95
2023-02-05T12:04:53.829Z,94.95
2023-02-05T12:05:53.859Z,94.95
2023-02-05T12:06:54.745Z,94.79
2023-02-05T12:07:53.796Z,94.85
2023-02-05T12:08:53.813Z,94.79
2023-02-05T12:09:53.763Z,94.74
2023-02-05T12:10:53.754Z,94.79
2023-02-05T12:11:54.658Z,94.79
2023-02-05T12:12:53.741Z,94.85
2023-02-05T12:13:53.718Z,94.79
2023-02-05T12:14:53.761Z,94.58
2023-02-05T12:15:53.693Z,94.53
2023-02-05T12:16:54.589Z,94.58
2023-02-05T12:17:53.681Z,94.42
2023-02-05T12:18:53.653Z,94.53
2023-02-05T12:19:53.618Z,94.21
2023-02-05T12:20:53.709Z,94.26
2023-02-05T12:21:54.680Z,94.47
2023-02-05T12:22:53.614Z,94.53
2023-02-05T12:23:53.614Z,95.57
2023-02-05T12:24:53.581Z,94.37
2023-02-05T12:25:53.548Z,95.68
2023-02-05T12:26:53.564Z,95.46
2023-02-05T12:27:54.539Z,95.57
2023-02-05T12:28:53.539Z,94.10
2023-02-05T12:29:53.486Z,94.10